Rosamond, California
Current Conditions -  °F | °C
As of 2:56 PM on Sunday 21 Dec 2014 (Local Time) from KWJF Reporting Station
Clear Clear  
Wind Chill: 59°   Ceiling: Unl
Heat Index: 59°   Visibility: 10mi
Dew Point: 46°   Wind: 8mph
Humidity: 62%   Direction: 290°WNW
Pressure: 30.13"   Gusts: NA
Location:  34.86°N, 118.16°W
Report Text: KWJF 212256Z 29007KT 10SM CLR 15/08 A3013 RMK AO2 PK WND 27026/2214 SLP201 T01500078
Loading
Personal Weather Stations






























Interactive Weather Map New forecast layout! Learn more

10-Day Weather Forecast

Advertisements
Track Severe Weather on mobile